Time;durP1;ratioP1;P1;durP2;ratioP2;P2;SDS_P1;SDS_P2;PMS_P1;PMS_P2;Temp;Humidity;BMP_temperature;BMP_pressure;BME280_temperature;BME280_humidity;BME280_pressure;Samples;Min_cycle;Max_cycle;Signal;HPM_P1;HPM_P2
2023/07/12 00:00:01;;;;;;;4.28;1.85;;;19.80;99.90;;;;;;4882065;29;20060;-68
2023/07/12 00:02:26;;;;;;;2.42;2.10;;;19.80;99.90;;;;;;4898808;29;20139;-68
2023/07/12 00:04:52;;;;;;;5.05;2.08;;;19.90;99.90;;;;;;4881826;29;20056;-68
2023/07/12 00:07:18;;;;;;;3.65;2.33;;;19.90;99.90;;;;;;4898862;29;20063;-68
2023/07/12 00:09:45;;;;;;;4.20;2.22;;;19.90;99.90;;;;;;4898538;29;20128;-68
2023/07/12 00:12:10;;;;;;;3.83;2.55;;;19.90;99.90;;;;;;4881862;29;20044;-68
2023/07/12 00:14:36;;;;;;;4.50;2.67;;;19.90;99.90;;;;;;4898481;29;20083;-68
2023/07/12 00:17:02;;;;;;;2.88;2.58;;;20.00;99.90;;;;;;4898491;29;20100;-68
2023/07/12 00:19:28;;;;;;;3.55;2.42;;;19.90;99.90;;;;;;4898798;29;20059;-68
2023/07/12 00:21:53;;;;;;;5.25;2.75;;;20.00;99.90;;;;;;4898476;29;20539;-68
2023/07/12 00:24:19;;;;;;;4.22;2.90;;;20.00;99.90;;;;;;4898481;29;20048;-68
2023/07/12 00:26:45;;;;;;;5.07;2.67;;;20.10;99.90;;;;;;4898219;29;20143;-68
2023/07/12 00:29:10;;;;;;;3.00;2.55;;;20.00;99.90;;;;;;4881295;29;20067;-68
2023/07/12 00:31:39;;;;;;;3.55;2.20;;;19.90;99.90;;;;;;4898339;29;20060;-68
2023/07/12 00:34:05;;;;;;;5.07;2.50;;;19.90;99.90;;;;;;4898352;29;20132;-68
2023/07/12 00:36:32;;;;;;;4.18;2.30;;;19.90;99.90;;;;;;4898203;29;20163;-68
2023/07/12 00:38:59;;;;;;;2.78;2.38;;;19.90;99.90;;;;;;4898443;29;20048;-68
2023/07/12 00:41:58;;;;;;;3.85;2.65;;;19.90;99.90;;;;;;4898093;29;20416;-68
2023/07/12 00:44:30;;;;;;;2.95;2.38;;;19.90;99.90;;;;;;4881258;29;20127;-68
2023/07/12 00:46:57;;;;;;;4.28;2.10;;;19.90;99.90;;;;;;4904966;29;20088;-68
2023/07/12 00:49:24;;;;;;;3.22;2.20;;;19.90;99.90;;;;;;4917127;29;20381;-68
2023/07/12 00:51:59;;;;;;;3.97;2.40;;;19.90;99.90;;;;;;4917135;29;20103;-68
2023/07/12 00:54:46;;;;;;;5.40;2.28;;;19.80;99.90;;;;;;4916589;29;20058;-68
2023/07/12 00:57:12;;;;;;;4.65;2.15;;;19.80;99.90;;;;;;4917261;29;20060;-68
2023/07/12 00:59:37;;;;;;;4.20;2.20;;;19.80;99.90;;;;;;4917333;29;20447;-68
2023/07/12 01:02:03;;;;;;;5.90;2.42;;;19.80;99.90;;;;;;4916749;29;20052;-69
2023/07/12 01:04:46;;;;;;;5.25;2.50;;;19.80;99.90;;;;;;4916747;29;20091;-68
2023/07/12 01:07:13;;;;;;;2.45;2.10;;;19.80;99.90;;;;;;4916870;29;20055;-68
2023/07/12 01:09:39;;;;;;;4.18;2.30;;;19.80;99.90;;;;;;4899567;29;20056;-68
2023/07/12 01:12:05;;;;;;;5.05;2.47;;;19.80;99.90;;;;;;4916371;29;20063;-68
2023/07/12 01:14:31;;;;;;;2.85;2.15;;;19.80;99.90;;;;;;4899720;29;20154;-68
2023/07/12 01:17:06;;;;;;;3.70;1.95;;;19.80;99.90;;;;;;4916446;29;20047;-68
2023/07/12 01:19:33;;;;;;;3.13;2.05;;;19.80;99.90;;;;;;4916547;29;20040;-69
2023/07/12 01:21:58;;;;;;;3.08;2.50;;;19.70;99.90;;;;;;4916418;29;20052;-68
2023/07/12 01:24:27;;;;;;;4.80;1.80;;;19.80;99.90;;;;;;4916524;29;20535;-68
2023/07/12 01:26:57;;;;;;;4.15;2.17;;;19.80;99.90;;;;;;4915994;29;20092;-69
2023/07/12 01:29:24;;;;;;;3.08;1.90;;;19.80;99.90;;;;;;4898689;29;20052;-68
2023/07/12 01:31:50;;;;;;;5.10;2.47;;;19.80;99.90;;;;;;4916170;29;20059;-69
2023/07/12 01:34:17;;;;;;;3.90;2.35;;;19.80;99.90;;;;;;4916269;29;20163;-69
2023/07/12 01:36:43;;;;;;;3.78;1.98;;;19.80;99.90;;;;;;4899384;29;20060;-69
2023/07/12 01:39:08;;;;;;;3.95;2.13;;;19.80;99.90;;;;;;4916131;29;20094;-69
2023/07/12 01:41:35;;;;;;;4.80;2.40;;;19.80;99.90;;;;;;4915920;29;20492;-68
2023/07/12 01:44:00;;;;;;;2.58;2.38;;;19.80;99.90;;;;;;4915646;29;20044;-68
2023/07/12 01:46:26;;;;;;;5.03;2.75;;;19.90;99.90;;;;;;4915809;29;20058;-69
2023/07/12 01:48:52;;;;;;;5.05;2.45;;;19.80;99.90;;;;;;4916091;29;20052;-68
2023/07/12 01:51:20;;;;;;;4.53;2.60;;;19.80;99.90;;;;;;4916131;29;20143;-69
2023/07/12 01:53:46;;;;;;;4.13;2.50;;;19.80;99.90;;;;;;4899017;29;20416;-69
2023/07/12 01:56:13;;;;;;;2.83;2.53;;;19.80;99.90;;;;;;4915980;29;20090;-69
2023/07/12 01:58:39;;;;;;;6.60;2.83;;;19.70;99.90;;;;;;4915555;29;20420;-68
2023/07/12 02:01:04;;;;;;;5.07;2.80;;;19.70;99.90;;;;;;4916084;29;20044;-69
2023/07/12 02:03:30;;;;;;;6.93;2.67;;;19.80;99.90;;;;;;4915837;29;20055;-68
2023/07/12 02:05:57;;;;;;;4.38;2.47;;;19.70;99.90;;;;;;4915732;29;20044;-69
2023/07/12 02:08:23;;;;;;;3.53;2.40;;;19.70;99.90;;;;;;4915228;29;20044;-68
2023/07/12 02:10:49;;;;;;;6.57;3.08;;;19.70;99.90;;;;;;4898542;29;20052;-69
2023/07/12 02:13:16;;;;;;;3.45;2.75;;;19.60;99.90;;;;;;4915366;29;20196;-68
2023/07/12 02:15:43;;;;;;;4.85;2.83;;;19.60;99.90;;;;;;4915558;29;20133;-68
2023/07/12 02:18:10;;;;;;;4.03;2.53;;;19.60;99.90;;;;;;4898281;29;20135;-69
2023/07/12 02:20:36;;;;;;;5.07;2.60;;;19.60;99.90;;;;;;4915522;29;20178;-68
2023/07/12 02:23:02;;;;;;;2.95;2.28;;;19.60;99.90;;;;;;4915383;29;20496;-69
2023/07/12 02:25:28;;;;;;;4.57;2.60;;;19.60;99.90;;;;;;4915169;29;20070;-69
2023/07/12 02:27:54;;;;;;;5.88;3.00;;;19.60;99.90;;;;;;4914789;29;20127;-68
2023/07/12 02:30:25;;;;;;;7.93;2.83;;;19.70;99.90;;;;;;4914931;29;20056;-68
2023/07/12 02:32:52;;;;;;;5.43;2.93;;;19.60;99.90;;;;;;4915309;29;20054;-69
2023/07/12 02:35:19;;;;;;;4.20;2.80;;;19.60;99.90;;;;;;4897922;29;20052;-69
2023/07/12 02:37:45;;;;;;;5.32;2.53;;;19.60;99.90;;;;;;4915192;29;20396;-69
2023/07/12 02:40:14;;;;;;;5.30;2.95;;;19.60;99.90;;;;;;4914988;29;20040;-69
2023/07/12 02:42:40;;;;;;;6.68;2.92;;;19.50;99.90;;;;;;4914788;29;20048;-69
2023/07/12 02:45:06;;;;;;;7.15;3.03;;;19.60;99.90;;;;;;4914863;29;20064;-68
2023/07/12 02:47:32;;;;;;;5.53;3.00;;;19.60;99.90;;;;;;4914790;29;20058;-68
2023/07/12 02:49:58;;;;;;;7.97;3.72;;;19.60;99.90;;;;;;4898080;29;20083;-69
2023/07/12 02:52:24;;;;;;;6.13;3.45;;;19.60;99.90;;;;;;4914620;29;20087;-69
2023/07/12 02:54:49;;;;;;;7.65;3.20;;;19.60;99.90;;;;;;4914655;29;20054;-69
2023/07/12 02:57:16;;;;;;;4.70;3.33;;;19.50;99.90;;;;;;4914677;29;20087;-68
2023/07/12 02:59:42;;;;;;;6.10;3.33;;;19.50;99.90;;;;;;4897596;29;20060;-69
2023/07/12 03:02:10;;;;;;;8.40;3.72;;;19.40;99.90;;;;;;4914826;29;20054;-69
2023/07/12 03:04:35;;;;;;;5.22;3.35;;;19.40;99.90;;;;;;4914902;29;20048;-69
2023/07/12 03:07:01;;;;;;;11.85;4.65;;;19.30;99.90;;;;;;4915778;29;20048;-68
2023/07/12 03:09:27;;;;;;;6.13;3.20;;;19.40;99.90;;;;;;4897981;29;20056;-69
2023/07/12 03:11:53;;;;;;;7.00;3.03;;;19.30;99.90;;;;;;4914640;29;20790;-69
2023/07/12 03:14:20;;;;;;;7.07;3.22;;;19.20;99.90;;;;;;4914565;29;20052;-69
2023/07/12 03:16:46;;;;;;;8.15;3.03;;;19.30;99.90;;;;;;4914698;29;20107;-69
2023/07/12 03:19:13;;;;;;;5.80;2.75;;;19.20;99.90;;;;;;4917513;29;20729;-69
2023/07/12 03:21:39;;;;;;;6.78;3.72;;;19.10;99.90;;;;;;4918612;29;20048;-68
2023/07/12 03:24:06;;;;;;;7.88;3.30;;;19.00;99.90;;;;;;4901235;29;20559;-68
2023/07/12 03:26:32;;;;;;;5.97;3.10;;;19.00;99.90;;;;;;4917919;29;20111;-68
2023/07/12 03:28:58;;;;;;;9.98;3.58;;;19.10;99.90;;;;;;4901316;29;20052;-68
2023/07/12 03:31:25;;;;;;;10.90;3.05;;;19.10;99.90;;;;;;4901164;29;20056;-68
2023/07/12 03:33:52;;;;;;;4.75;2.95;;;19.10;99.90;;;;;;4918324;29;20127;-68
2023/07/12 03:36:19;;;;;;;6.55;3.65;;;19.10;99.90;;;;;;4901079;29;20060;-68
2023/07/12 03:38:45;;;;;;;5.15;3.20;;;19.10;99.90;;;;;;4917951;29;20051;-68
2023/07/12 03:41:14;;;;;;;6.85;3.05;;;19.10;99.90;;;;;;4917945;29;20052;-68
2023/07/12 03:43:40;;;;;;;9.45;3.55;;;19.10;99.90;;;;;;4918185;29;20052;-68
2023/07/12 03:46:06;;;;;;;11.70;3.80;;;19.00;99.90;;;;;;4918219;29;20067;-68
2023/07/12 03:48:33;;;;;;;7.43;2.97;;;19.00;99.90;;;;;;4917942;29;20508;-68
2023/07/12 03:50:59;;;;;;;10.88;3.80;;;18.90;99.90;;;;;;4917940;29;20524;-68
2023/07/12 03:53:27;;;;;;;7.18;3.83;;;18.80;99.90;;;;;;4917830;29;20412;-68
2023/07/12 03:55:55;;;;;;;10.75;3.83;;;18.70;99.90;;;;;;4917849;29;20203;-68
2023/07/12 03:58:24;;;;;;;10.55;3.58;;;18.80;99.90;;;;;;4917871;29;20056;-68
2023/07/12 04:00:50;;;;;;;8.27;3.55;;;18.70;99.90;;;;;;4917601;29;20052;-68
2023/07/12 04:03:19;;;;;;;8.95;3.13;;;18.80;99.90;;;;;;4917808;29;20392;-68
2023/07/12 04:05:49;;;;;;;8.57;3.70;;;18.70;99.90;;;;;;4900499;29;20059;-68
2023/07/12 04:08:15;;;;;;;8.63;3.63;;;18.70;99.90;;;;;;4917601;29;20060;-68
2023/07/12 04:10:41;;;;;;;7.95;3.53;;;18.70;99.90;;;;;;4917463;29;20401;-68
2023/07/12 04:13:07;;;;;;;11.02;3.78;;;18.60;99.90;;;;;;4917612;29;20066;-68
2023/07/12 04:15:33;;;;;;;6.40;3.60;;;18.50;99.90;;;;;;4917705;29;20409;-68
2023/07/12 04:17:58;;;;;;;7.18;3.42;;;18.60;99.90;;;;;;4917638;29;20063;-68
2023/07/12 04:20:24;;;;;;;8.98;3.75;;;18.60;99.90;;;;;;4917206;29;20082;-68
2023/07/12 04:22:51;;;;;;;6.13;2.92;;;18.60;99.90;;;;;;4917423;29;20052;-68
2023/07/12 04:25:18;;;;;;;10.73;3.70;;;18.60;99.90;;;;;;4916942;29;20448;-68
2023/07/12 04:27:44;;;;;;;7.70;3.22;;;18.60;99.90;;;;;;4917363;29;20115;-68
2023/07/12 04:30:16;;;;;;;6.88;3.05;;;18.60;99.90;;;;;;4916105;29;20444;-68
2023/07/12 04:32:43;;;;;;;10.27;3.78;;;18.60;99.90;;;;;;4917326;29;20110;-68
2023/07/12 04:35:10;;;;;;;7.70;2.90;;;18.60;99.90;;;;;;4917382;29;20131;-68
2023/07/12 04:37:36;;;;;;;7.05;2.75;;;18.60;99.90;;;;;;4900064;29;20060;-68
2023/07/12 04:40:02;;;;;;;7.10;2.97;;;18.50;99.90;;;;;;4916996;29;20055;-68
2023/07/12 04:42:28;;;;;;;10.65;3.45;;;18.60;99.90;;;;;;4917008;29;20124;-68
2023/07/12 04:44:53;;;;;;;8.50;2.80;;;18.70;99.90;;;;;;4917162;29;20123;-68
2023/07/12 04:47:19;;;;;;;8.07;3.95;;;18.60;99.90;;;;;;4917027;29;20432;-68
2023/07/12 04:49:45;;;;;;;7.55;3.10;;;18.60;99.90;;;;;;4917053;29;20048;-68
2023/07/12 04:52:11;;;;;;;6.65;3.15;;;18.50;99.90;;;;;;4916828;29;20092;-68
2023/07/12 04:54:42;;;;;;;8.32;3.42;;;18.50;99.90;;;;;;4916648;29;20506;-68
2023/07/12 04:57:08;;;;;;;8.48;3.85;;;18.40;99.90;;;;;;4916802;29;20501;-68
2023/07/12 04:59:35;;;;;;;10.27;3.15;;;18.50;99.90;;;;;;4899616;29;20052;-68
2023/07/12 05:02:00;;;;;;;9.82;3.53;;;18.40;99.90;;;;;;4916417;29;20063;-68
2023/07/12 05:04:26;;;;;;;8.65;3.50;;;18.40;99.90;;;;;;4916487;29;20048;-68
2023/07/12 05:06:52;;;;;;;13.10;4.10;;;18.40;99.90;;;;;;4899369;29;20152;-68
2023/07/12 05:09:18;;;;;;;10.13;3.97;;;18.40;99.90;;;;;;4899431;29;20147;-68
2023/07/12 05:11:44;;;;;;;8.55;3.40;;;18.50;99.90;;;;;;4916578;29;20059;-68
2023/07/12 05:14:10;;;;;;;6.70;3.60;;;18.40;99.90;;;;;;4916558;29;20406;-68
2023/07/12 05:16:36;;;;;;;8.50;3.28;;;18.40;99.90;;;;;;4899689;29;20126;-68
2023/07/12 05:19:03;;;;;;;11.50;3.58;;;18.40;99.90;;;;;;4916461;29;20044;-68
2023/07/12 05:21:29;;;;;;;12.75;4.07;;;18.50;99.90;;;;;;4916076;29;20144;-68
2023/07/12 05:23:54;;;;;;;7.07;3.63;;;18.50;99.90;;;;;;4916294;29;20127;-68
2023/07/12 05:26:20;;;;;;;10.95;3.90;;;18.60;99.90;;;;;;4915937;29;20083;-68
2023/07/12 05:28:46;;;;;;;8.10;4.20;;;18.60;99.90;;;;;;4916246;29;20056;-68
2023/07/12 05:31:13;;;;;;;12.55;4.03;;;18.60;99.90;;;;;;4916105;29;20052;-68
2023/07/12 05:33:45;;;;;;;9.27;3.92;;;18.60;99.90;;;;;;4899376;29;20055;-69
2023/07/12 05:36:11;;;;;;;7.97;3.70;;;18.40;99.90;;;;;;4916358;29;20050;-68
2023/07/12 05:38:37;;;;;;;10.00;4.63;;;18.60;99.90;;;;;;4916370;29;20480;-69
2023/07/12 05:41:03;;;;;;;12.25;4.40;;;18.60;99.90;;;;;;4916104;29;20063;-69
2023/07/12 05:43:29;;;;;;;8.30;4.32;;;18.60;99.90;;;;;;4898786;29;20091;-69
2023/07/12 05:45:58;;;;;;;14.07;5.28;;;18.60;99.90;;;;;;4916007;29;20075;-69
2023/07/12 05:48:25;;;;;;;11.73;4.70;;;18.70;99.90;;;;;;4916092;29;20156;-69
2023/07/12 05:50:52;;;;;;;8.85;4.72;;;18.70;99.90;;;;;;4915818;29;20048;-69
2023/07/12 05:53:18;;;;;;;10.00;4.72;;;18.70;99.90;;;;;;4915823;29;20056;-69
2023/07/12 05:55:44;;;;;;;14.27;5.53;;;18.80;99.90;;;;;;4898700;29;20389;-69
2023/07/12 05:58:10;;;;;;;10.23;5.20;;;18.80;99.90;;;;;;4915482;29;20052;-69
2023/07/12 06:00:36;;;;;;;15.95;6.47;;;18.70;99.90;;;;;;4915643;29;20052;-69
2023/07/12 06:03:01;;;;;;;10.48;5.88;;;18.90;99.90;;;;;;4915834;29;20381;-69
2023/07/12 06:05:27;;;;;;;12.52;5.28;;;18.90;99.90;;;;;;4897581;29;20111;-68
2023/07/12 06:07:53;;;;;;;11.27;5.70;;;18.90;99.90;;;;;;4880851;29;20048;-70
2023/07/12 06:10:18;;;;;;;15.32;6.07;;;18.90;99.90;;;;;;4881618;29;20052;-69
2023/07/12 06:12:44;;;;;;;13.95;5.88;;;18.90;99.90;;;;;;4897939;29;20400;-70
2023/07/12 06:15:10;;;;;;;15.45;5.57;;;19.00;99.90;;;;;;4898756;29;20165;-68
2023/07/12 06:17:36;;;;;;;11.85;5.93;;;19.10;99.90;;;;;;4898215;29;20054;-70
2023/07/12 06:20:03;;;;;;;15.93;6.55;;;19.10;99.90;;;;;;4898045;29;20150;-69
2023/07/12 06:22:29;;;;;;;13.75;6.07;;;19.10;99.90;;;;;;4897274;29;20060;-70
2023/07/12 06:24:55;;;;;;;12.00;6.53;;;19.10;99.90;;;;;;4898142;29;20433;-70
2023/07/12 06:27:21;;;;;;;15.13;6.35;;;19.00;99.90;;;;;;4897666;29;20048;-70
2023/07/12 06:29:47;;;;;;;16.10;6.93;;;19.10;99.90;;;;;;4896075;29;20049;-70
2023/07/12 06:32:13;;;;;;;10.25;5.45;;;19.10;99.90;;;;;;4896239;29;20131;-70
2023/07/12 06:34:39;;;;;;;12.57;6.63;;;19.10;99.90;;;;;;4863636;29;20056;-70
2023/07/12 06:37:08;;;;;;;15.23;6.97;;;19.10;99.90;;;;;;4879454;29;20048;-70
2023/07/12 06:39:34;;;;;;;13.82;7.00;;;19.10;99.90;;;;;;4896236;29;20056;-70
2023/07/12 06:42:00;;;;;;;20.02;6.70;;;19.10;99.90;;;;;;4896152;29;20131;-70
2023/07/12 06:44:26;;;;;;;15.90;6.65;;;19.10;99.90;;;;;;4896176;29;20156;-70
2023/07/12 06:46:52;;;;;;;13.32;7.10;;;19.10;99.90;;;;;;4896311;29;20682;-71
2023/07/12 06:49:18;;;;;;;13.60;6.78;;;19.20;99.90;;;;;;4896258;29;20068;-70
2023/07/12 06:51:46;;;;;;;13.45;5.97;;;19.30;99.90;;;;;;4896191;29;20556;-70
2023/07/12 06:54:14;;;;;;;12.48;6.65;;;19.40;99.90;;;;;;4896210;29;20505;-71
2023/07/12 06:56:40;;;;;;;14.45;6.35;;;19.60;99.90;;;;;;4879065;29;20059;-71
2023/07/12 06:59:06;;;;;;;19.60;6.03;;;19.70;99.90;;;;;;4879070;29;20050;-71
2023/07/12 07:01:32;;;;;;;13.65;5.20;;;19.80;99.90;;;;;;4895616;29;20099;-70
2023/07/12 07:03:57;;;;;;;10.88;5.18;;;19.90;99.90;;;;;;4895777;29;20080;-71
2023/07/12 07:06:24;;;;;;;11.10;5.53;;;19.80;99.90;;;;;;4878882;29;20418;-71
2023/07/12 07:08:50;;;;;;;15.73;6.18;;;19.80;99.90;;;;;;4879082;29;20067;-72
2023/07/12 07:11:16;;;;;;;13.68;6.45;;;19.70;99.90;;;;;;4878709;29;20048;-71
2023/07/12 07:13:43;;;;;;;13.98;5.72;;;19.60;99.90;;;;;;4888461;29;20056;-72
2023/07/12 07:16:09;;;;;;;11.32;5.63;;;19.60;99.90;;;;;;4883605;29;20140;-69
2023/07/12 07:18:35;;;;;;;16.02;4.93;;;19.60;99.90;;;;;;4859801;29;20049;-69
2023/07/12 07:21:01;;;;;;;10.27;5.80;;;19.60;99.90;;;;;;4876973;29;20045;-68
2023/07/12 07:23:27;;;;;;;14.23;5.10;;;19.70;99.90;;;;;;4885493;29;20057;-69
2023/07/12 07:25:53;;;;;;;13.07;6.55;;;19.50;99.90;;;;;;4873471;29;20049;-69
2023/07/12 07:28:20;;;;;;;12.10;4.85;;;19.60;99.90;;;;;;4892549;29;20041;-68
2023/07/12 07:30:54;;;;;;;11.60;5.43;;;19.60;99.90;;;;;;4890268;29;20127;-69
2023/07/12 07:33:20;;;;;;;11.02;4.97;;;19.50;99.90;;;;;;4876467;29;20056;-69
2023/07/12 07:35:45;;;;;;;6.78;4.70;;;19.50;99.90;;;;;;4889082;29;20052;-68
2023/07/12 07:38:13;;;;;;;13.40;4.80;;;19.60;99.90;;;;;;4895221;29;20519;-71
2023/07/12 07:40:42;;;;;;;13.68;5.10;;;19.50;99.90;;;;;;4878632;29;20113;-72
2023/07/12 07:43:10;;;;;;;9.93;5.13;;;19.60;99.90;;;;;;4878412;29;20071;-71
2023/07/12 07:45:36;;;;;;;13.50;5.22;;;19.60;99.90;;;;;;4895466;29;20456;-72
2023/07/12 07:48:02;;;;;;;12.57;4.80;;;19.70;99.90;;;;;;4895031;29;20060;-69
2023/07/12 07:50:28;;;;;;;9.55;5.05;;;19.90;99.90;;;;;;4894511;29;20057;-69
2023/07/12 07:52:53;;;;;;;10.82;5.07;;;20.00;99.90;;;;;;4895411;29;20123;-69
2023/07/12 07:55:21;;;;;;;16.60;5.10;;;20.10;99.90;;;;;;4895521;29;20049;-69
2023/07/12 07:57:47;;;;;;;11.68;4.90;;;20.30;99.90;;;;;;4878353;29;20083;-69
2023/07/12 08:00:14;;;;;;;9.85;4.65;;;20.30;99.90;;;;;;4895159;29;20067;-69
2023/07/12 08:02:42;;;;;;;9.30;4.50;;;20.50;99.90;;;;;;4894309;29;20140;-69
2023/07/12 08:05:11;;;;;;;8.60;4.80;;;20.50;99.90;;;;;;4897637;29;20067;-69
2023/07/12 08:07:42;;;;;;;10.98;4.05;;;20.60;99.90;;;;;;4898639;29;20089;-69
2023/07/12 08:10:10;;;;;;;8.60;4.22;;;20.60;99.90;;;;;;4898723;29;20064;-69
2023/07/12 08:12:36;;;;;;;12.93;4.03;;;20.70;99.90;;;;;;4898908;29;20092;-69
2023/07/12 08:15:02;;;;;;;10.60;4.43;;;20.70;99.90;;;;;;4898674;29;20119;-70
2023/07/12 08:17:28;;;;;;;13.90;4.60;;;20.80;99.90;;;;;;4898645;29;20069;-70
2023/07/12 08:19:54;;;;;;;11.90;4.10;;;20.90;99.90;;;;;;4898357;29;20048;-71
2023/07/12 08:22:20;;;;;;;11.32;4.70;;;20.90;99.90;;;;;;4881647;29;20116;-70
2023/07/12 08:24:46;;;;;;;13.32;5.60;;;20.90;99.90;;;;;;4898283;29;20116;-70
2023/07/12 08:27:13;;;;;;;14.68;5.22;;;20.70;99.90;;;;;;4897244;29;20044;-71
2023/07/12 08:29:39;;;;;;;13.70;5.80;;;20.80;99.90;;;;;;4898077;29;20071;-71
2023/07/12 08:32:05;;;;;;;14.20;5.75;;;20.70;99.90;;;;;;4898248;29;20416;-71
2023/07/12 08:34:31;;;;;;;13.45;4.55;;;20.80;99.90;;;;;;4897746;29;20543;-70
2023/07/12 08:36:57;;;;;;;13.27;4.38;;;20.60;99.90;;;;;;4891736;29;20057;-70
2023/07/12 08:39:23;;;;;;;10.10;4.20;;;20.40;99.90;;;;;;4897744;29;20052;-70
2023/07/12 08:41:51;;;;;;;14.48;4.93;;;20.50;99.90;;;;;;4897648;29;20053;-70
2023/07/12 08:44:17;;;;;;;11.60;5.07;;;20.50;99.90;;;;;;4890123;29;20202;-71
2023/07/12 08:46:49;;;;;;;11.20;4.63;;;20.20;99.90;;;;;;4889406;29;20045;-70
2023/07/12 08:49:17;;;;;;;8.23;3.90;;;20.20;99.90;;;;;;4889656;29;20076;-70
2023/07/12 08:51:43;;;;;;;7.90;4.35;;;20.10;99.90;;;;;;4893005;29;20089;-71
2023/07/12 08:54:33;;;;;;;11.93;4.68;;;20.10;99.90;;;;;;4884065;29;20408;-70
2023/07/12 08:57:11;;;;;;;13.50;4.47;;;20.10;99.90;;;;;;4888950;29;20060;-70
2023/07/12 08:59:37;;;;;;;12.80;4.35;;;20.30;99.90;;;;;;4873308;29;20111;-71
2023/07/12 09:02:12;;;;;;;11.02;4.85;;;20.40;99.90;;;;;;4889698;29;20049;-70
2023/07/12 09:04:38;;;;;;;11.13;4.47;;;20.30;99.90;;;;;;4897751;29;20516;-71
2023/07/12 09:07:04;;;;;;;12.77;4.60;;;20.40;99.90;;;;;;4897954;29;20044;-71
2023/07/12 09:09:36;;;;;;;9.27;3.95;;;20.40;99.90;;;;;;4880530;29;20044;-71
2023/07/12 09:12:05;;;;;;;;;;;20.30;99.90;;;;;;4889354;29;20061;-70
2023/07/12 09:14:35;;;;;;;10.48;4.70;;;20.30;99.90;;;;;;4886849;29;20292;-71
2023/07/12 09:17:01;;;;;;;12.93;4.68;;;20.30;99.90;;;;;;4894231;29;20053;-71
2023/07/12 09:19:37;;;;;;;14.95;4.88;;;20.30;99.90;;;;;;4886201;29;20130;-71
2023/07/12 09:22:14;;;;;;;13.85;4.88;;;20.30;99.90;;;;;;4879288;29;20060;-71
2023/07/12 09:24:49;;;;;;;11.73;4.65;;;20.40;99.90;;;;;;4878934;29;20396;-71
2023/07/12 09:27:24;;;;;;;10.43;4.47;;;20.40;99.90;;;;;;4884321;29;20056;-71
2023/07/12 09:30:00;;;;;;;12.80;4.65;;;20.40;99.90;;;;;;4897093;29;20120;-71
2023/07/12 09:32:35;;;;;;;12.40;4.43;;;20.40;99.90;;;;;;4897587;29;20057;-71
2023/07/12 09:35:03;;;;;;;11.43;4.07;;;20.40;99.90;;;;;;4897122;29;20058;-71
2023/07/12 09:37:36;;;;;;;10.00;4.65;;;20.40;99.90;;;;;;4897393;29;20105;-71
2023/07/12 09:40:04;;;;;;;8.38;3.78;;;20.40;99.90;;;;;;4877092;29;20439;-71
2023/07/12 09:42:30;;;;;;;15.02;4.95;;;20.50;99.90;;;;;;4896224;29;20108;-71
2023/07/12 09:45:04;;;;;;;8.18;3.60;;;20.60;99.90;;;;;;4888302;29;20072;-71
2023/07/12 09:47:57;;;;;;;11.18;4.60;;;20.80;99.90;;;;;;4878368;29;20097;-71
2023/07/12 09:50:35;;;;;;;10.82;4.38;;;21.00;99.90;;;;;;4878499;29;20412;-71
2023/07/12 09:53:48;;;;;;;9.85;4.28;;;20.90;99.90;;;;;;4878632;29;20778;-71
2023/07/12 09:56:37;;;;;;;11.10;4.28;;;20.90;99.90;;;;;;4888232;29;20052;-71
2023/07/12 09:59:26;;;;;;;15.73;5.10;;;20.70;99.90;;;;;;4892162;29;20060;-71
2023/07/12 10:02:17;;;;;;;8.02;4.95;;;20.70;99.90;;;;;;4896614;29;20144;-71
2023/07/12 10:04:52;;;;;;;10.40;4.55;;;20.50;99.90;;;;;;4879813;29;20083;-70
2023/07/12 10:07:37;;;;;;;11.02;4.60;;;20.50;99.90;;;;;;4879866;29;20067;-70
2023/07/12 10:10:15;;;;;;;9.55;4.25;;;20.60;99.90;;;;;;4896896;29;20384;-70
2023/07/12 10:12:50;;;;;;;9.60;4.25;;;20.60;99.90;;;;;;4879825;29;20135;-70
2023/07/12 10:15:16;;;;;;;13.18;4.93;;;20.80;99.90;;;;;;4887690;29;20056;-70
2023/07/12 10:17:44;;;;;;;12.57;5.13;;;20.90;99.90;;;;;;4878030;29;20057;-70
2023/07/12 10:20:29;;;;;;;11.07;4.65;;;20.90;99.90;;;;;;4877955;29;20073;-71
2023/07/12 10:22:56;;;;;;;9.20;3.78;;;21.10;99.90;;;;;;4860875;29;20140;-70
2023/07/12 10:25:30;;;;;;;12.95;4.55;;;21.20;99.90;;;;;;4877443;29;20492;-72
2023/07/12 10:28:11;;;;;;;13.98;4.32;;;21.20;99.90;;;;;;4875317;29;20497;-70
2023/07/12 10:30:39;;;;;;;9.38;4.13;;;21.00;99.90;;;;;;4877206;29;20084;-70
2023/07/12 10:33:13;;;;;;;10.55;3.75;;;21.00;99.90;;;;;;4877411;29;20045;-71
2023/07/12 10:35:46;;;;;;;13.57;3.85;;;21.20;99.90;;;;;;4877735;29;20109;-71
2023/07/12 10:38:18;;;;;;;10.80;3.53;;;21.40;99.90;;;;;;4885464;29;20048;-71
2023/07/12 10:41:02;;;;;;;8.68;3.50;;;21.40;99.90;;;;;;4869401;29;20057;-71
2023/07/12 10:43:46;;;;;;;12.65;3.13;;;21.30;99.90;;;;;;4854324;29;20076;-71
2023/07/12 10:46:37;;;;;;;11.90;3.13;;;21.40;99.90;;;;;;4888159;29;20458;-70
2023/07/12 10:49:12;;;;;;;10.73;2.97;;;21.50;99.90;;;;;;4869135;29;20061;-71
2023/07/12 10:51:40;;;;;;;7.93;3.03;;;21.60;99.90;;;;;;4868523;29;20044;-71
2023/07/12 10:54:29;;;;;;;8.82;3.25;;;21.70;99.90;;;;;;4864519;29;20088;-71
2023/07/12 10:57:01;;;;;;;13.35;3.90;;;21.70;99.90;;;;;;4876875;29;20377;-71
2023/07/12 10:59:32;;;;;;;9.63;3.55;;;21.60;99.90;;;;;;4877420;29;20057;-69
2023/07/12 11:02:04;;;;;;;8.35;3.60;;;21.40;99.90;;;;;;4877040;29;20052;-69
2023/07/12 11:04:29;;;;;;;12.88;3.95;;;21.40;99.90;;;;;;4877246;29;20045;-69
2023/07/12 11:07:18;;;;;;;9.32;3.33;;;21.30;99.90;;;;;;4877309;29;20037;-69
2023/07/12 11:12:31;;;;;;;10.07;3.47;;;21.30;99.90;;;;;;4877035;29;20088;-69
2023/07/12 11:15:03;;;;;;;9.00;3.05;;;21.40;99.90;;;;;;4869878;29;20064;-69
2023/07/12 11:17:29;;;;;;;;;;;21.50;99.90;;;;;;4877606;29;20064;-69
2023/07/12 11:20:08;;;;;;;11.10;3.28;;;21.60;99.90;;;;;;4877028;29;19967;-69
2023/07/12 11:22:52;;;;;;;9.23;2.58;;;21.60;99.90;;;;;;4876822;29;20120;-69
2023/07/12 11:25:43;;;;;;;7.57;2.58;;;21.70;99.90;;;;;;4876395;29;20112;-69
2023/07/12 11:28:21;;;;;;;8.32;2.90;;;21.80;99.90;;;;;;4844721;29;20060;-69
2023/07/12 11:31:02;;;;;;;6.90;2.88;;;21.90;99.90;;;;;;4859926;29;20063;-69
2023/07/12 11:33:32;;;;;;;8.50;2.75;;;22.00;99.90;;;;;;4877138;29;20060;-69
2023/07/12 11:36:16;;;;;;;9.35;2.85;;;22.00;99.90;;;;;;4877197;29;20057;-69
2023/07/12 11:38:43;;;;;;;4.82;2.50;;;22.10;99.90;;;;;;4881358;29;20497;-68
2023/07/12 11:41:20;;;;;;;10.40;3.05;;;22.30;99.90;;;;;;4899584;29;20842;-69
2023/07/12 11:43:46;;;;;;;7.80;2.65;;;22.30;99.90;;;;;;4882270;29;20049;-69
2023/07/12 11:46:19;;;;;;;9.35;2.97;;;22.40;99.90;;;;;;4880538;29;20049;-69
2023/07/12 11:48:58;;;;;;;10.27;3.33;;;22.40;99.90;;;;;;4880735;29;20526;-69
2023/07/12 11:51:35;;;;;;;6.78;2.92;;;22.40;99.90;;;;;;4880388;29;20057;-69
2023/07/12 11:54:13;;;;;;;12.65;2.60;;;22.40;99.90;;;;;;4863344;29;20139;-69
2023/07/12 11:56:42;;;;;;;13.93;3.13;;;22.40;99.90;;;;;;4885488;29;20055;-69
2023/07/12 11:59:17;;;;;;;9.35;2.92;;;22.50;99.90;;;;;;4899202;29;20135;-69
2023/07/12 12:01:44;;;;;;;8.18;2.95;;;22.70;99.90;;;;;;4881911;29;20112;-68
2023/07/12 12:04:28;;;;;;;6.13;2.33;;;22.80;99.90;;;;;;4898920;29;20056;-69
2023/07/12 12:06:59;;;;;;;6.68;1.88;;;22.90;99.90;;;;;;4882126;29;20064;-69
2023/07/12 12:09:30;;;;;;;2.53;1.20;;;23.10;99.90;;;;;;4898824;29;20062;-69
2023/07/12 12:11:57;;;;;;;5.38;1.15;;;23.30;99.90;;;;;;4882678;29;20120;-69
2023/07/12 12:14:26;;;;;;;4.93;1.20;;;23.40;99.90;;;;;;4898648;29;20068;-69
2023/07/12 12:16:54;;;;;;;6.18;1.30;;;23.50;99.90;;;;;;4898948;29;20064;-69
2023/07/12 12:19:22;;;;;;;2.75;1.00;;;23.50;99.90;;;;;;4882859;29;20722;-69
2023/07/12 12:21:50;;;;;;;1.42;1.13;;;23.60;99.90;;;;;;4879549;29;20057;-69
2023/07/12 12:24:18;;;;;;;2.95;1.35;;;23.60;99.90;;;;;;4879994;29;20063;-69
2023/07/12 12:26:46;;;;;;;2.33;1.35;;;23.50;99.90;;;;;;4879555;29;20053;-69
2023/07/12 12:29:16;;;;;;;1.77;1.10;;;23.50;99.90;;;;;;4879695;29;20053;-69
2023/07/12 12:32:02;;;;;;;3.67;1.33;;;23.60;99.90;;;;;;4880013;29;20057;-69
2023/07/12 12:34:37;;;;;;;4.13;1.10;;;23.70;99.90;;;;;;4879537;29;20057;-69
2023/07/12 12:37:05;;;;;;;4.15;1.10;;;23.90;99.90;;;;;;4879439;29;20056;-69
2023/07/12 12:39:32;;;;;;;3.70;1.10;;;23.80;99.90;;;;;;4879631;29;20521;-69
2023/07/12 12:42:03;;;;;;;2.92;1.30;;;23.90;99.90;;;;;;4879581;29;20085;-69
2023/07/12 12:44:31;;;;;;;2.13;1.10;;;23.90;99.90;;;;;;4879619;29;20049;-69
2023/07/12 12:47:01;;;;;;;5.72;1.50;;;23.90;99.90;;;;;;4879674;29;20053;-69
2023/07/12 12:49:29;;;;;;;4.40;1.15;;;23.90;99.90;;;;;;4879471;29;20465;-69
2023/07/12 12:51:58;;;;;;;2.28;0.80;;;23.80;99.90;;;;;;4878227;29;20053;-69
2023/07/12 12:54:24;;;;;;;2.83;1.10;;;23.30;99.90;;;;;;4879254;29;20049;-69